sensor_id;sensor_type;location;lat;lon;timestamp;P1;durP1;ratioP1;P2;durP2;ratioP2
58972;SDS011;44750;52.040;7.472;2023-12-20T00:00:12;7.60;;;3.03;;
58972;SDS011;44750;52.040;7.472;2023-12-20T00:05:13;4.72;;;2.65;;
58972;SDS011;44750;52.040;7.472;2023-12-20T00:10:14;5.10;;;2.45;;
58972;SDS011;44750;52.040;7.472;2023-12-20T00:15:14;5.43;;;2.67;;
58972;SDS011;44750;52.040;7.472;2023-12-20T00:20:14;6.45;;;3.70;;
58972;SDS011;44750;52.040;7.472;2023-12-20T00:25:14;5.38;;;2.83;;
58972;SDS011;44750;52.040;7.472;2023-12-20T00:30:15;8.65;;;3.00;;
58972;SDS011;44750;52.040;7.472;2023-12-20T00:35:15;5.38;;;3.20;;
58972;SDS011;44750;52.040;7.472;2023-12-20T00:40:16;13.13;;;3.25;;
58972;SDS011;44750;52.040;7.472;2023-12-20T00:45:16;5.25;;;2.85;;
58972;SDS011;44750;52.040;7.472;2023-12-20T00:50:16;4.82;;;3.15;;
58972;SDS011;44750;52.040;7.472;2023-12-20T00:55:16;5.05;;;2.50;;
58972;SDS011;44750;52.040;7.472;2023-12-20T01:00:17;8.03;;;2.93;;
58972;SDS011;44750;52.040;7.472;2023-12-20T01:05:18;8.23;;;2.83;;
58972;SDS011;44750;52.040;7.472;2023-12-20T01:10:18;5.63;;;3.00;;
58972;SDS011;44750;52.040;7.472;2023-12-20T01:15:18;8.07;;;3.05;;
58972;SDS011;44750;52.040;7.472;2023-12-20T01:20:19;6.28;;;3.35;;
58972;SDS011;44750;52.040;7.472;2023-12-20T01:25:19;6.90;;;2.97;;
58972;SDS011;44750;52.040;7.472;2023-12-20T01:30:19;5.53;;;2.85;;
58972;SDS011;44750;52.040;7.472;2023-12-20T01:35:19;6.90;;;3.65;;
58972;SDS011;44750;52.040;7.472;2023-12-20T01:40:20;5.28;;;3.40;;
58972;SDS011;44750;52.040;7.472;2023-12-20T01:45:20;8.27;;;4.20;;
58972;SDS011;44750;52.040;7.472;2023-12-20T01:50:20;6.93;;;4.03;;
58972;SDS011;44750;52.040;7.472;2023-12-20T01:55:21;7.05;;;3.78;;
58972;SDS011;44750;52.040;7.472;2023-12-20T02:00:22;14.00;;;3.80;;
58972;SDS011;44750;52.040;7.472;2023-12-20T02:05:23;11.13;;;3.88;;
58972;SDS011;44750;52.040;7.472;2023-12-20T02:10:24;9.50;;;3.47;;
58972;SDS011;44750;52.040;7.472;2023-12-20T02:15:25;8.57;;;3.58;;
58972;SDS011;44750;52.040;7.472;2023-12-20T02:20:25;5.85;;;2.72;;
58972;SDS011;44750;52.040;7.472;2023-12-20T02:25:25;10.20;;;2.58;;
58972;SDS011;44750;52.040;7.472;2023-12-20T02:30:25;12.75;;;2.70;;
58972;SDS011;44750;52.040;7.472;2023-12-20T02:35:26;6.90;;;2.70;;
58972;SDS011;44750;52.040;7.472;2023-12-20T02:40:26;8.27;;;2.50;;
58972;SDS011;44750;52.040;7.472;2023-12-20T02:45:26;11.68;;;3.00;;
58972;SDS011;44750;52.040;7.472;2023-12-20T02:50:27;8.68;;;2.63;;
58972;SDS011;44750;52.040;7.472;2023-12-20T02:55:27;6.05;;;2.13;;
58972;SDS011;44750;52.040;7.472;2023-12-20T03:00:27;8.23;;;2.65;;
58972;SDS011;44750;52.040;7.472;2023-12-20T03:05:28;8.60;;;2.22;;
58972;SDS011;44750;52.040;7.472;2023-12-20T03:10:28;7.32;;;2.13;;
58972;SDS011;44750;52.040;7.472;2023-12-20T03:15:28;9.38;;;2.28;;
58972;SDS011;44750;52.040;7.472;2023-12-20T03:20:28;8.75;;;2.80;;
58972;SDS011;44750;52.040;7.472;2023-12-20T03:25:29;7.07;;;2.60;;
58972;SDS011;44750;52.040;7.472;2023-12-20T03:30:29;10.25;;;2.55;;
58972;SDS011;44750;52.040;7.472;2023-12-20T03:35:29;15.25;;;3.13;;
58972;SDS011;44750;52.040;7.472;2023-12-20T03:40:30;11.48;;;3.22;;
58972;SDS011;44750;52.040;7.472;2023-12-20T03:45:30;6.05;;;2.13;;
58972;SDS011;44750;52.040;7.472;2023-12-20T03:50:31;8.13;;;2.13;;
58972;SDS011;44750;52.040;7.472;2023-12-20T03:55:31;7.93;;;2.45;;
58972;SDS011;44750;52.040;7.472;2023-12-20T04:00:31;10.80;;;2.60;;
58972;SDS011;44750;52.040;7.472;2023-12-20T04:05:31;12.35;;;2.65;;
58972;SDS011;44750;52.040;7.472;2023-12-20T04:10:32;11.18;;;2.78;;
58972;SDS011;44750;52.040;7.472;2023-12-20T04:15:32;7.43;;;2.50;;
58972;SDS011;44750;52.040;7.472;2023-12-20T04:20:32;11.73;;;2.88;;
58972;SDS011;44750;52.040;7.472;2023-12-20T04:25:32;23.30;;;3.30;;
58972;SDS011;44750;52.040;7.472;2023-12-20T04:30:33;8.93;;;3.15;;
58972;SDS011;44750;52.040;7.472;2023-12-20T04:35:33;11.38;;;3.50;;
58972;SDS011;44750;52.040;7.472;2023-12-20T04:40:33;9.50;;;2.80;;
58972;SDS011;44750;52.040;7.472;2023-12-20T04:45:34;9.68;;;3.30;;
58972;SDS011;44750;52.040;7.472;2023-12-20T04:50:34;10.50;;;3.20;;
58972;SDS011;44750;52.040;7.472;2023-12-20T04:55:34;12.93;;;3.63;;
58972;SDS011;44750;52.040;7.472;2023-12-20T05:00:34;7.95;;;3.35;;
58972;SDS011;44750;52.040;7.472;2023-12-20T05:05:35;15.32;;;3.95;;
58972;SDS011;44750;52.040;7.472;2023-12-20T05:10:36;9.30;;;3.42;;
58972;SDS011;44750;52.040;7.472;2023-12-20T05:15:36;13.32;;;3.60;;
58972;SDS011;44750;52.040;7.472;2023-12-20T05:20:36;9.82;;;3.50;;
58972;SDS011;44750;52.040;7.472;2023-12-20T05:25:36;13.50;;;3.85;;
58972;SDS011;44750;52.040;7.472;2023-12-20T05:30:37;8.73;;;3.15;;
58972;SDS011;44750;52.040;7.472;2023-12-20T05:35:37;9.93;;;3.75;;
58972;SDS011;44750;52.040;7.472;2023-12-20T05:40:37;10.70;;;3.65;;
58972;SDS011;44750;52.040;7.472;2023-12-20T05:45:38;11.98;;;3.92;;
58972;SDS011;44750;52.040;7.472;2023-12-20T05:50:38;10.25;;;3.67;;
58972;SDS011;44750;52.040;7.472;2023-12-20T05:55:38;10.32;;;3.28;;
58972;SDS011;44750;52.040;7.472;2023-12-20T06:00:38;15.85;;;4.13;;
58972;SDS011;44750;52.040;7.472;2023-12-20T06:05:39;12.05;;;3.65;;
58972;SDS011;44750;52.040;7.472;2023-12-20T06:10:39;6.40;;;3.20;;
58972;SDS011;44750;52.040;7.472;2023-12-20T06:15:39;10.33;;;3.30;;
58972;SDS011;44750;52.040;7.472;2023-12-20T06:20:40;10.38;;;2.70;;
58972;SDS011;44750;52.040;7.472;2023-12-20T06:25:40;6.82;;;2.97;;
58972;SDS011;44750;52.040;7.472;2023-12-20T06:30:40;11.52;;;3.72;;
58972;SDS011;44750;52.040;7.472;2023-12-20T06:35:40;11.50;;;3.30;;
58972;SDS011;44750;52.040;7.472;2023-12-20T06:40:41;10.65;;;3.25;;
58972;SDS011;44750;52.040;7.472;2023-12-20T06:45:41;12.65;;;3.33;;
58972;SDS011;44750;52.040;7.472;2023-12-20T06:50:41;9.60;;;3.30;;
58972;SDS011;44750;52.040;7.472;2023-12-20T06:55:42;15.38;;;3.17;;
58972;SDS011;44750;52.040;7.472;2023-12-20T07:00:42;11.57;;;3.47;;
58972;SDS011;44750;52.040;7.472;2023-12-20T07:05:42;9.25;;;3.30;;
58972;SDS011;44750;52.040;7.472;2023-12-20T07:10:43;8.43;;;2.97;;
58972;SDS011;44750;52.040;7.472;2023-12-20T07:15:43;15.40;;;3.63;;
58972;SDS011;44750;52.040;7.472;2023-12-20T07:20:43;6.68;;;2.92;;
58972;SDS011;44750;52.040;7.472;2023-12-20T07:25:43;7.78;;;3.50;;
58972;SDS011;44750;52.040;7.472;2023-12-20T07:30:44;9.80;;;3.47;;
58972;SDS011;44750;52.040;7.472;2023-12-20T07:35:44;10.50;;;3.43;;
58972;SDS011;44750;52.040;7.472;2023-12-20T07:40:44;10.77;;;3.55;;
58972;SDS011;44750;52.040;7.472;2023-12-20T07:45:45;13.10;;;3.55;;
58972;SDS011;44750;52.040;7.472;2023-12-20T07:50:45;14.50;;;3.35;;
58972;SDS011;44750;52.040;7.472;2023-12-20T07:55:45;11.57;;;3.63;;
58972;SDS011;44750;52.040;7.472;2023-12-20T08:00:45;23.40;;;3.75;;
58972;SDS011;44750;52.040;7.472;2023-12-20T08:05:45;15.85;;;4.18;;
58972;SDS011;44750;52.040;7.472;2023-12-20T08:10:46;9.02;;;3.88;;
58972;SDS011;44750;52.040;7.472;2023-12-20T08:15:46;18.45;;;3.88;;
58972;SDS011;44750;52.040;7.472;2023-12-20T08:20:46;14.13;;;4.30;;
58972;SDS011;44750;52.040;7.472;2023-12-20T08:25:47;12.13;;;3.88;;
58972;SDS011;44750;52.040;7.472;2023-12-20T08:30:47;11.53;;;4.17;;
58972;SDS011;44750;52.040;7.472;2023-12-20T08:35:47;9.60;;;3.47;;
58972;SDS011;44750;52.040;7.472;2023-12-20T08:40:47;9.15;;;3.97;;
58972;SDS011;44750;52.040;7.472;2023-12-20T08:45:47;11.77;;;3.60;;
58972;SDS011;44750;52.040;7.472;2023-12-20T08:50:48;11.88;;;4.57;;
58972;SDS011;44750;52.040;7.472;2023-12-20T08:55:48;9.60;;;4.10;;
58972;SDS011;44750;52.040;7.472;2023-12-20T09:00:48;11.50;;;4.15;;
58972;SDS011;44750;52.040;7.472;2023-12-20T09:05:49;13.77;;;3.75;;
58972;SDS011;44750;52.040;7.472;2023-12-20T09:10:49;8.85;;;3.45;;
58972;SDS011;44750;52.040;7.472;2023-12-20T09:15:49;8.82;;;3.97;;
58972;SDS011;44750;52.040;7.472;2023-12-20T09:20:49;23.30;;;4.85;;
58972;SDS011;44750;52.040;7.472;2023-12-20T09:25:50;8.65;;;3.47;;
58972;SDS011;44750;52.040;7.472;2023-12-20T09:30:50;9.53;;;3.87;;
58972;SDS011;44750;52.040;7.472;2023-12-20T09:35:50;30.50;;;5.07;;
58972;SDS011;44750;52.040;7.472;2023-12-20T09:40:50;21.63;;;4.07;;
58972;SDS011;44750;52.040;7.472;2023-12-20T09:45:52;10.57;;;3.72;;
58972;SDS011;44750;52.040;7.472;2023-12-20T09:50:54;13.40;;;3.83;;
58972;SDS011;44750;52.040;7.472;2023-12-20T09:55:58;10.32;;;3.25;;
58972;SDS011;44750;52.040;7.472;2023-12-20T10:00:58;11.93;;;4.13;;
58972;SDS011;44750;52.040;7.472;2023-12-20T10:06:00;13.35;;;3.65;;
58972;SDS011;44750;52.040;7.472;2023-12-20T10:11:03;8.43;;;3.42;;
58972;SDS011;44750;52.040;7.472;2023-12-20T10:16:04;11.13;;;3.43;;
58972;SDS011;44750;52.040;7.472;2023-12-20T10:21:06;8.15;;;3.38;;
58972;SDS011;44750;52.040;7.472;2023-12-20T10:26:07;8.93;;;2.95;;
58972;SDS011;44750;52.040;7.472;2023-12-20T10:31:07;13.00;;;4.13;;
58972;SDS011;44750;52.040;7.472;2023-12-20T10:36:07;7.03;;;3.15;;
58972;SDS011;44750;52.040;7.472;2023-12-20T10:41:09;5.95;;;3.03;;
58972;SDS011;44750;52.040;7.472;2023-12-20T10:46:11;7.45;;;2.97;;
58972;SDS011;44750;52.040;7.472;2023-12-20T10:51:13;5.22;;;2.45;;
58972;SDS011;44750;52.040;7.472;2023-12-20T10:56:17;6.72;;;2.50;;
58972;SDS011;44750;52.040;7.472;2023-12-20T11:01:18;9.40;;;2.65;;
58972;SDS011;44750;52.040;7.472;2023-12-20T11:17:09;6.72;;;2.70;;
58972;SDS011;44750;52.040;7.472;2023-12-20T11:22:10;5.03;;;2.58;;
58972;SDS011;44750;52.040;7.472;2023-12-20T11:27:10;11.07;;;2.75;;
58972;SDS011;44750;52.040;7.472;2023-12-20T11:37:31;5.95;;;2.40;;
58972;SDS011;44750;52.040;7.472;2023-12-20T11:42:39;8.60;;;3.08;;
58972;SDS011;44750;52.040;7.472;2023-12-20T11:47:40;9.35;;;3.00;;
58972;SDS011;44750;52.040;7.472;2023-12-20T11:52:40;9.32;;;3.42;;
58972;SDS011;44750;52.040;7.472;2023-12-20T11:57:41;6.75;;;2.90;;
58972;SDS011;44750;52.040;7.472;2023-12-20T12:02:42;7.80;;;2.97;;
58972;SDS011;44750;52.040;7.472;2023-12-20T12:07:43;10.13;;;3.22;;
58972;SDS011;44750;52.040;7.472;2023-12-20T12:12:43;10.82;;;2.92;;
58972;SDS011;44750;52.040;7.472;2023-12-20T12:17:43;11.40;;;3.70;;
58972;SDS011;44750;52.040;7.472;2023-12-20T12:22:44;7.93;;;2.80;;
58972;SDS011;44750;52.040;7.472;2023-12-20T12:27:44;7.43;;;3.03;;
58972;SDS011;44750;52.040;7.472;2023-12-20T12:32:44;8.02;;;2.83;;
58972;SDS011;44750;52.040;7.472;2023-12-20T12:37:45;8.70;;;3.03;;
58972;SDS011;44750;52.040;7.472;2023-12-20T12:42:45;8.75;;;2.92;;
58972;SDS011;44750;52.040;7.472;2023-12-20T12:47:45;7.90;;;3.00;;
58972;SDS011;44750;52.040;7.472;2023-12-20T12:52:46;7.88;;;2.80;;
58972;SDS011;44750;52.040;7.472;2023-12-20T12:57:46;11.77;;;4.13;;
58972;SDS011;44750;52.040;7.472;2023-12-20T13:02:46;11.15;;;2.90;;
58972;SDS011;44750;52.040;7.472;2023-12-20T13:07:46;7.55;;;3.15;;
58972;SDS011;44750;52.040;7.472;2023-12-20T13:12:47;9.88;;;3.70;;
58972;SDS011;44750;52.040;7.472;2023-12-20T13:17:47;10.20;;;3.13;;
58972;SDS011;44750;52.040;7.472;2023-12-20T13:22:47;3.83;;;1.60;;
58972;SDS011;44750;52.040;7.472;2023-12-20T13:27:48;1.92;;;1.27;;
58972;SDS011;44750;52.040;7.472;2023-12-20T13:32:48;2.67;;;1.90;;
58972;SDS011;44750;52.040;7.472;2023-12-20T13:37:48;4.75;;;1.83;;
58972;SDS011;44750;52.040;7.472;2023-12-20T13:42:49;3.20;;;1.37;;
58972;SDS011;44750;52.040;7.472;2023-12-20T13:47:49;5.93;;;1.85;;
58972;SDS011;44750;52.040;7.472;2023-12-20T13:52:49;2.88;;;1.45;;
58972;SDS011;44750;52.040;7.472;2023-12-20T13:57:49;2.60;;;1.60;;
58972;SDS011;44750;52.040;7.472;2023-12-20T14:02:50;8.20;;;2.45;;
58972;SDS011;44750;52.040;7.472;2023-12-20T14:07:50;6.00;;;2.20;;
58972;SDS011;44750;52.040;7.472;2023-12-20T14:12:50;11.00;;;3.60;;
58972;SDS011;44750;52.040;7.472;2023-12-20T14:17:51;13.82;;;3.17;;
58972;SDS011;44750;52.040;7.472;2023-12-20T14:22:51;11.82;;;3.20;;
58972;SDS011;44750;52.040;7.472;2023-12-20T14:27:51;10.50;;;3.28;;
58972;SDS011;44750;52.040;7.472;2023-12-20T14:32:51;7.75;;;3.20;;
58972;SDS011;44750;52.040;7.472;2023-12-20T14:37:51;10.07;;;3.13;;
58972;SDS011;44750;52.040;7.472;2023-12-20T14:42:52;9.10;;;3.10;;
58972;SDS011;44750;52.040;7.472;2023-12-20T14:47:52;7.78;;;2.70;;
58972;SDS011;44750;52.040;7.472;2023-12-20T14:52:52;11.55;;;3.53;;
58972;SDS011;44750;52.040;7.472;2023-12-20T14:57:52;10.13;;;3.33;;
58972;SDS011;44750;52.040;7.472;2023-12-20T15:02:53;5.25;;;2.42;;
58972;SDS011;44750;52.040;7.472;2023-12-20T15:07:53;9.05;;;3.70;;
58972;SDS011;44750;52.040;7.472;2023-12-20T15:12:53;6.15;;;3.10;;
58972;SDS011;44750;52.040;7.472;2023-12-20T15:17:53;8.65;;;3.13;;
58972;SDS011;44750;52.040;7.472;2023-12-20T15:22:54;16.52;;;3.53;;
58972;SDS011;44750;52.040;7.472;2023-12-20T15:27:54;12.98;;;3.63;;
58972;SDS011;44750;52.040;7.472;2023-12-20T15:32:54;9.68;;;4.20;;
58972;SDS011;44750;52.040;7.472;2023-12-20T15:37:54;8.65;;;3.13;;
58972;SDS011;44750;52.040;7.472;2023-12-20T15:42:55;10.38;;;3.78;;
58972;SDS011;44750;52.040;7.472;2023-12-20T15:47:55;8.52;;;3.30;;
58972;SDS011;44750;52.040;7.472;2023-12-20T15:52:55;6.95;;;3.33;;
58972;SDS011;44750;52.040;7.472;2023-12-20T15:57:55;11.68;;;4.22;;
58972;SDS011;44750;52.040;7.472;2023-12-20T16:02:56;15.65;;;3.83;;
58972;SDS011;44750;52.040;7.472;2023-12-20T16:07:56;13.35;;;4.53;;
58972;SDS011;44750;52.040;7.472;2023-12-20T16:12:56;8.02;;;3.67;;
58972;SDS011;44750;52.040;7.472;2023-12-20T16:17:56;9.70;;;4.10;;
58972;SDS011;44750;52.040;7.472;2023-12-20T16:22:57;11.80;;;4.50;;
58972;SDS011;44750;52.040;7.472;2023-12-20T16:27:57;8.57;;;3.53;;
58972;SDS011;44750;52.040;7.472;2023-12-20T16:32:57;10.23;;;4.43;;
58972;SDS011;44750;52.040;7.472;2023-12-20T16:37:57;7.32;;;3.65;;
58972;SDS011;44750;52.040;7.472;2023-12-20T16:42:58;8.90;;;3.90;;
58972;SDS011;44750;52.040;7.472;2023-12-20T16:47:58;13.05;;;4.45;;
58972;SDS011;44750;52.040;7.472;2023-12-20T16:52:58;11.35;;;4.80;;
58972;SDS011;44750;52.040;7.472;2023-12-20T16:57:58;11.95;;;4.75;;
58972;SDS011;44750;52.040;7.472;2023-12-20T17:02:59;8.90;;;4.28;;
58972;SDS011;44750;52.040;7.472;2023-12-20T17:07:59;9.77;;;5.15;;
58972;SDS011;44750;52.040;7.472;2023-12-20T17:12:59;18.08;;;5.90;;
58972;SDS011;44750;52.040;7.472;2023-12-20T17:17:59;13.10;;;5.60;;
58972;SDS011;44750;52.040;7.472;2023-12-20T17:22:59;14.73;;;5.25;;
58972;SDS011;44750;52.040;7.472;2023-12-20T17:28:00;8.07;;;4.80;;
58972;SDS011;44750;52.040;7.472;2023-12-20T17:33:00;9.40;;;4.70;;
58972;SDS011;44750;52.040;7.472;2023-12-20T17:38:01;11.45;;;5.18;;
58972;SDS011;44750;52.040;7.472;2023-12-20T17:43:01;10.93;;;4.77;;
58972;SDS011;44750;52.040;7.472;2023-12-20T17:48:03;10.30;;;4.40;;
58972;SDS011;44750;52.040;7.472;2023-12-20T17:53:03;7.90;;;4.20;;
58972;SDS011;44750;52.040;7.472;2023-12-20T17:58:04;11.77;;;4.78;;
58972;SDS011;44750;52.040;7.472;2023-12-20T18:03:04;11.50;;;5.43;;
58972;SDS011;44750;52.040;7.472;2023-12-20T18:08:05;6.45;;;4.35;;
58972;SDS011;44750;52.040;7.472;2023-12-20T18:13:05;11.82;;;5.40;;
58972;SDS011;44750;52.040;7.472;2023-12-20T18:18:05;13.88;;;5.43;;
58972;SDS011;44750;52.040;7.472;2023-12-20T18:23:06;7.95;;;4.70;;
58972;SDS011;44750;52.040;7.472;2023-12-20T18:28:06;8.75;;;5.72;;
58972;SDS011;44750;52.040;7.472;2023-12-20T18:33:06;17.83;;;5.97;;
58972;SDS011;44750;52.040;7.472;2023-12-20T18:38:06;10.07;;;6.20;;
58972;SDS011;44750;52.040;7.472;2023-12-20T18:43:06;12.10;;;5.82;;
58972;SDS011;44750;52.040;7.472;2023-12-20T18:48:07;10.48;;;5.43;;
58972;SDS011;44750;52.040;7.472;2023-12-20T18:53:07;10.55;;;6.00;;
58972;SDS011;44750;52.040;7.472;2023-12-20T18:58:07;24.25;;;6.47;;
58972;SDS011;44750;52.040;7.472;2023-12-20T19:03:08;10.10;;;5.78;;
58972;SDS011;44750;52.040;7.472;2023-12-20T19:08:09;18.42;;;5.43;;
58972;SDS011;44750;52.040;7.472;2023-12-20T19:13:09;7.25;;;4.95;;
58972;SDS011;44750;52.040;7.472;2023-12-20T19:18:09;6.53;;;4.75;;
58972;SDS011;44750;52.040;7.472;2023-12-20T19:23:10;6.97;;;5.22;;
58972;SDS011;44750;52.040;7.472;2023-12-20T19:28:10;8.30;;;5.38;;
58972;SDS011;44750;52.040;7.472;2023-12-20T19:33:10;5.63;;;4.17;;
58972;SDS011;44750;52.040;7.472;2023-12-20T19:38:10;6.18;;;4.25;;
58972;SDS011;44750;52.040;7.472;2023-12-20T19:43:11;7.65;;;4.85;;
58972;SDS011;44750;52.040;7.472;2023-12-20T19:48:11;4.78;;;3.70;;
58972;SDS011;44750;52.040;7.472;2023-12-20T19:53:11;4.60;;;3.80;;
58972;SDS011;44750;52.040;7.472;2023-12-20T19:58:11;4.20;;;3.80;;
58972;SDS011;44750;52.040;7.472;2023-12-20T20:03:12;4.95;;;3.67;;
58972;SDS011;44750;52.040;7.472;2023-12-20T20:08:12;3.35;;;3.00;;
58972;SDS011;44750;52.040;7.472;2023-12-20T20:13:12;3.70;;;3.40;;
58972;SDS011;44750;52.040;7.472;2023-12-20T20:18:12;5.00;;;4.13;;
58972;SDS011;44750;52.040;7.472;2023-12-20T20:23:13;5.20;;;3.90;;
58972;SDS011;44750;52.040;7.472;2023-12-20T20:28:13;5.70;;;3.50;;
58972;SDS011;44750;52.040;7.472;2023-12-20T20:33:13;3.60;;;3.30;;
58972;SDS011;44750;52.040;7.472;2023-12-20T20:38:13;5.13;;;3.95;;
58972;SDS011;44750;52.040;7.472;2023-12-20T20:43:14;4.78;;;3.92;;
58972;SDS011;44750;52.040;7.472;2023-12-20T20:48:14;4.72;;;4.13;;
58972;SDS011;44750;52.040;7.472;2023-12-20T20:53:15;4.50;;;3.80;;
58972;SDS011;44750;52.040;7.472;2023-12-20T20:58:15;7.30;;;3.83;;
58972;SDS011;44750;52.040;7.472;2023-12-20T21:03:16;3.53;;;3.22;;
58972;SDS011;44750;52.040;7.472;2023-12-20T21:08:16;4.97;;;4.22;;
58972;SDS011;44750;52.040;7.472;2023-12-20T21:13:16;4.15;;;3.75;;
58972;SDS011;44750;52.040;7.472;2023-12-20T21:18:17;4.50;;;3.83;;
58972;SDS011;44750;52.040;7.472;2023-12-20T21:23:17;3.80;;;3.42;;
58972;SDS011;44750;52.040;7.472;2023-12-20T21:28:17;5.00;;;4.28;;
58972;SDS011;44750;52.040;7.472;2023-12-20T21:33:17;7.38;;;4.80;;
58972;SDS011;44750;52.040;7.472;2023-12-20T21:38:18;4.38;;;3.97;;
58972;SDS011;44750;52.040;7.472;2023-12-20T21:43:18;5.30;;;4.10;;
58972;SDS011;44750;52.040;7.472;2023-12-20T21:48:18;5.18;;;4.00;;
58972;SDS011;44750;52.040;7.472;2023-12-20T21:53:18;4.82;;;4.10;;
58972;SDS011;44750;52.040;7.472;2023-12-20T21:58:19;6.03;;;4.33;;
58972;SDS011;44750;52.040;7.472;2023-12-20T22:03:19;6.15;;;4.55;;
58972;SDS011;44750;52.040;7.472;2023-12-20T22:08:19;7.70;;;4.32;;
58972;SDS011;44750;52.040;7.472;2023-12-20T22:13:19;4.07;;;3.47;;
58972;SDS011;44750;52.040;7.472;2023-12-20T22:18:20;4.35;;;3.53;;
58972;SDS011;44750;52.040;7.472;2023-12-20T22:23:20;3.85;;;3.30;;
58972;SDS011;44750;52.040;7.472;2023-12-20T22:28:20;4.32;;;3.55;;
58972;SDS011;44750;52.040;7.472;2023-12-20T22:33:20;4.60;;;3.10;;
58972;SDS011;44750;52.040;7.472;2023-12-20T22:38:21;3.53;;;2.97;;
58972;SDS011;44750;52.040;7.472;2023-12-20T22:43:21;2.92;;;2.60;;
58972;SDS011;44750;52.040;7.472;2023-12-20T22:48:21;3.75;;;2.75;;
58972;SDS011;44750;52.040;7.472;2023-12-20T22:53:22;3.53;;;2.05;;
58972;SDS011;44750;52.040;7.472;2023-12-20T22:58:22;5.45;;;2.00;;
58972;SDS011;44750;52.040;7.472;2023-12-20T23:03:22;2.23;;;2.00;;
58972;SDS011;44750;52.040;7.472;2023-12-20T23:08:23;2.78;;;2.13;;
58972;SDS011;44750;52.040;7.472;2023-12-20T23:13:23;2.00;;;1.77;;
58972;SDS011;44750;52.040;7.472;2023-12-20T23:18:23;2.28;;;2.08;;
58972;SDS011;44750;52.040;7.472;2023-12-20T23:23:23;4.93;;;2.15;;
58972;SDS011;44750;52.040;7.472;2023-12-20T23:28:23;2.15;;;1.60;;
58972;SDS011;44750;52.040;7.472;2023-12-20T23:33:24;2.53;;;1.75;;
58972;SDS011;44750;52.040;7.472;2023-12-20T23:38:24;5.82;;;2.20;;
58972;SDS011;44750;52.040;7.472;2023-12-20T23:43:24;2.60;;;2.07;;
58972;SDS011;44750;52.040;7.472;2023-12-20T23:48:24;2.97;;;2.10;;
58972;SDS011;44750;52.040;7.472;2023-12-20T23:53:25;2.42;;;1.75;;
58972;SDS011;44750;52.040;7.472;2023-12-20T23:58:25;7.47;;;2.20;;
